Time;durP1;ratioP1;P1;durP2;ratioP2;P2;SDS_P1;SDS_P2;PMS_P1;PMS_P2;Temp;Humidity;BMP_temperature;BMP_pressure;BME280_temperature;BME280_humidity;BME280_pressure;Samples;Min_cycle;Max_cycle;Signal;HPM_P1;HPM_P2
2022/08/20 00:04:13;;;;;;;13.70;2.90;;;;;;;23.71;93.55;99689.38;10374214;28;20050;-69
2022/08/20 00:09:14;;;;;;;12.63;2.70;;;;;;;23.72;92.83;99689.09;10374978;28;20052;-68
2022/08/20 00:14:15;;;;;;;10.55;3.00;;;;;;;24.27;92.63;99762.63;10373746;28;20045;-68
2022/08/20 00:19:17;;;;;;;10.48;3.45;;;;;;;24.28;92.23;99750.66;10374434;28;20552;-69
2022/08/20 00:24:18;;;;;;;10.80;3.35;;;;;;;24.31;92.33;99750.13;10374877;28;20414;-68
2022/08/20 00:29:19;;;;;;;9.27;3.20;;;;;;;24.41;92.37;99760.97;10374102;28;20049;-69
2022/08/20 00:34:21;;;;;;;15.30;4.03;;;;;;;24.43;92.15;99760.72;10374563;28;20057;-68
2022/08/20 00:39:21;;;;;;;12.00;4.18;;;;;;;23.71;92.74;99649.50;10373487;28;20037;-68
2022/08/20 00:44:23;;;;;;;10.68;3.63;;;;;;;24.20;93.03;99749.34;10372994;28;20046;-69
2022/08/20 00:49:29;;;;;;;12.05;3.60;;;;;;;24.33;93.92;99753.38;10372744;28;20038;-68
2022/08/20 00:54:54;;;;;;;13.77;4.05;;;;;;;23.85;95.68;99663.34;10372759;28;20414;-68
2022/08/20 00:59:57;;;;;;;11.38;3.45;;;;;;;23.69;94.40;99668.78;10373505;28;20049;-68
2022/08/20 01:04:58;;;;;;;20.85;4.50;;;;;;;22.92;93.29;99536.94;10372352;28;20069;-68
2022/08/20 01:10:01;;;;;;;18.40;4.18;;;;;;;23.79;93.73;99697.78;10372025;28;20479;-68
2022/08/20 01:15:04;;;;;;;10.00;3.58;;;;;;;23.55;93.17;99664.13;10372689;28;20091;-69
2022/08/20 01:20:17;;;;;;;15.32;3.70;;;;;;;23.72;94.97;99715.41;10373515;28;20041;-68
2022/08/20 01:25:29;;;;;;;;;;;;;;;23.88;94.30;99727.91;10372751;28;20125;-68
2022/08/20 01:30:31;;;;;;;13.80;3.70;;;;;;;23.58;93.42;99728.66;10373134;28;19921;-68
2022/08/20 01:35:40;;;;;;;17.42;4.00;;;;;;;23.42;96.23;99692.56;10372071;28;20045;-68
2022/08/20 01:40:41;;;;;;;17.92;3.45;;;;;;;23.44;94.23;99699.34;10370391;28;20050;-68
2022/08/20 01:45:42;;;;;;;10.45;3.20;;;;;;;23.44;94.00;99722.94;10372136;28;20100;-68
2022/08/20 01:50:52;;;;;;;12.90;3.50;;;;;;;23.12;94.61;99669.72;10371918;28;20062;-68
2022/08/20 01:55:53;;;;;;;13.13;4.05;;;;;;;23.67;92.52;99733.28;10370903;28;20131;-69
2022/08/20 02:00:56;;;;;;;28.27;4.47;;;;;;;23.61;92.06;99719.97;10371768;28;20042;-68
2022/08/20 02:06:00;;;;;;;20.93;4.07;;;;;;;23.70;92.38;99745.50;10371247;28;20041;-68
2022/08/20 02:11:01;;;;;;;37.45;4.88;;;;;;;23.67;91.45;99735.97;10355883;28;20294;-68
2022/08/20 02:16:04;;;;;;;19.00;4.22;;;;;;;23.68;91.69;99747.63;10347815;28;20062;-69
2022/08/20 02:21:05;;;;;;;22.38;4.43;;;;;;;23.61;91.58;99753.31;10371095;28;20048;-68
2022/08/20 02:26:06;;;;;;;32.08;5.15;;;;;;;23.44;91.70;99725.63;10367452;28;20057;-69
2022/08/20 02:31:07;;;;;;;29.67;6.25;;;;;;;23.07;92.00;99679.75;10378372;28;20430;-68
2022/08/20 02:36:11;;;;;;;40.25;7.18;;;;;;;23.09;92.11;99689.22;10378133;28;20034;-69
2022/08/20 02:41:14;;;;;;;20.17;4.43;;;;;;;23.53;91.80;99743.00;10378389;28;20052;-69
2022/08/20 02:46:15;;;;;;;47.07;6.03;;;;;;;23.45;92.22;99759.78;10378397;28;20033;-69
2022/08/20 02:51:16;;;;;;;23.63;4.82;;;;;;;23.24;92.58;99732.66;10378037;28;20104;-68
2022/08/20 02:56:17;;;;;;;50.35;6.90;;;;;;;22.47;92.66;99625.09;10378306;28;20045;-69
2022/08/20 03:01:18;;;;;;;11.80;3.30;;;;;;;23.13;92.83;99757.25;10373977;28;20410;-69
2022/08/20 03:06:20;;;;;;;14.93;3.90;;;;;;;23.36;92.84;99780.34;10376008;28;20045;-68
2022/08/20 03:11:21;;;;;;;10.43;2.72;;;;;;;23.43;92.18;99791.78;10376797;28;20088;-69
2022/08/20 03:16:22;;;;;;;22.77;3.53;;;;;;;23.54;91.46;99793.41;10377302;28;20099;-68
2022/08/20 03:21:23;;;;;;;13.98;4.15;;;;;;;23.71;90.61;99784.28;10376896;28;20513;-68
2022/08/20 03:26:23;;;;;;;40.78;6.38;;;;;;;24.05;88.98;99787.28;10376541;28;20433;-68
2022/08/20 03:31:24;;;;;;;23.88;4.40;;;;;;;24.30;87.39;99809.03;10376408;28;20065;-68
2022/08/20 03:36:26;;;;;;;16.27;4.25;;;;;;;24.96;83.71;99807.31;10376171;28;20133;-69
2022/08/20 03:41:28;;;;;;;18.33;3.97;;;;;;;25.31;81.64;99805.59;10374870;28;20133;-69
2022/08/20 03:46:28;;;;;;;12.43;3.70;;;;;;;26.02;77.83;99788.06;10376589;28;20502;-70
2022/08/20 03:51:30;;;;;;;11.50;3.88;;;;;;;26.26;75.89;99818.88;10376466;28;20057;-69
2022/08/20 03:56:32;;;;;;;14.57;3.60;;;;;;;26.75;73.38;99814.41;10375566;28;20038;-69
2022/08/20 04:01:33;;;;;;;24.52;3.90;;;;;;;26.93;72.47;99813.66;10375757;28;20055;-69
2022/08/20 04:06:34;;;;;;;42.00;5.38;;;;;;;25.99;73.23;99761.41;10374705;28;20076;-69
2022/08/20 04:11:36;;;;;;;12.95;3.88;;;;;;;25.89;73.64;99797.69;10374940;28;20073;-69
2022/08/20 04:16:39;;;;;;;14.25;3.40;;;;;;;25.88;74.72;99823.28;10374711;28;20048;-68
2022/08/20 04:21:39;;;;;;;26.35;4.00;;;;;;;25.75;75.06;99811.06;10374029;28;20053;-69
2022/08/20 04:26:41;;;;;;;11.82;3.05;;;;;;;25.70;76.58;99825.53;10376384;28;20037;-69
2022/08/20 04:31:41;;;;;;;29.25;3.95;;;;;;;25.34;76.68;99747.94;10367656;28;20132;-69
2022/08/20 04:36:42;;;;;;;16.48;3.60;;;;;;;25.44;76.14;99756.06;10373484;28;20117;-68
2022/08/20 04:41:44;;;;;;;20.08;3.10;;;;;;;25.87;76.15;99797.94;10372819;28;20054;-68
2022/08/20 04:46:44;;;;;;;10.80;3.30;;;;;;;25.62;75.10;99744.50;10373898;28;20100;-68
2022/08/20 04:51:45;;;;;;;56.55;6.15;;;;;;;25.86;75.54;99774.56;10372321;28;20048;-68
2022/08/20 04:56:47;;;;;;;20.27;3.50;;;;;;;26.01;75.54;99800.06;10373024;28;20065;-68
2022/08/20 05:01:47;;;;;;;17.25;3.28;;;;;;;25.73;75.46;99747.97;10350038;28;20050;-68
2022/08/20 05:06:48;;;;;;;16.58;2.75;;;;;;;26.21;75.72;99823.59;10332961;28;20498;-68
2022/08/20 05:11:49;;;;;;;14.82;2.92;;;;;;;26.23;75.28;99835.00;10331936;28;20121;-68
2022/08/20 05:16:52;;;;;;;29.52;4.88;;;;;;;25.71;76.78;99756.41;10331814;28;20104;-68
2022/08/20 05:21:53;;;;;;;18.55;3.55;;;;;;;26.20;75.72;99811.88;10332066;28;20082;-68
2022/08/20 05:26:54;;;;;;;20.80;4.20;;;;;;;26.23;75.52;99788.72;10332459;28;20070;-71
2022/08/20 05:31:55;;;;;;;19.80;3.72;;;;;;;26.36;74.48;99794.31;10330946;28;20058;-71
2022/08/20 05:36:56;;;;;;;20.23;4.25;;;;;;;26.95;73.36;99821.53;10374860;28;20058;-69
2022/08/20 05:41:58;;;;;;;28.92;4.30;;;;;;;26.21;73.31;99710.06;10412835;28;20038;-70
2022/08/20 05:46:58;;;;;;;31.63;4.45;;;;;;;26.57;73.86;99788.72;10412973;28;20042;-69
2022/08/20 05:51:59;;;;;;;20.05;3.67;;;;;;;27.05;72.99;99811.34;10412789;28;20607;-68
2022/08/20 05:57:00;;;;;;;14.95;3.83;;;;;;;27.16;71.34;99768.44;10417937;28;20044;-67
2022/08/20 06:04:23;;;;;;;23.40;4.07;;;;;;;27.34;70.41;99768.75;10420081;28;20038;-69
2022/08/20 06:07:22;;;;;;;22.00;3.97;;;;;;;28.06;68.77;99823.97;10421153;28;20048;-69
2022/08/20 06:12:23;;;;;;;22.45;4.35;;;;;;;28.05;67.93;99756.00;10420402;28;20029;-68
2022/08/20 06:17:24;;;;;;;19.73;4.40;;;;;;;28.65;66.96;99836.09;10419411;28;20046;-71
2022/08/20 06:22:24;;;;;;;29.23;4.50;;;;;;;29.03;65.77;99821.50;10420428;28;20045;-68
2022/08/20 06:27:25;;;;;;;27.73;4.45;;;;;;;28.41;64.38;99704.31;10369744;28;20055;-71
2022/08/20 06:32:26;;;;;;;29.33;4.28;;;;;;;29.41;63.55;99822.09;10337348;28;20145;-70
2022/08/20 06:37:30;;;;;;;25.85;4.95;;;;;;;29.38;62.03;99825.44;10337636;28;20137;-70
2022/08/20 06:42:31;;;;;;;19.63;3.40;;;;;;;29.63;60.86;99818.63;10337414;28;20054;-69
2022/08/20 06:47:32;;;;;;;18.17;4.03;;;;;;;29.89;60.92;99821.59;10347998;28;20048;-68
2022/08/20 06:52:33;;;;;;;15.10;3.55;;;;;;;29.91;59.25;99822.09;10350051;28;20093;-71
2022/08/20 06:57:36;;;;;;;27.35;4.43;;;;;;;29.79;59.28;99816.34;10336549;28;20396;-73
2022/08/20 07:02:37;;;;;;;;;;;;;;;29.90;56.27;99819.66;10336951;28;20078;-70
2022/08/20 07:07:38;;;;;;;41.67;5.63;;;;;;;29.96;58.29;99826.66;10336337;28;20362;-71
2022/08/20 07:12:38;;;;;;;16.00;3.53;;;;;;;30.19;57.27;99803.63;10352135;28;20053;-68
2022/08/20 07:17:40;;;;;;;26.30;5.60;;;;;;;30.36;56.61;99793.91;10336265;28;20048;-70
2022/08/20 07:22:42;;;;;;;27.42;5.03;;;;;;;30.33;55.33;99787.13;10335857;28;20093;-68
2022/08/20 07:27:43;;;;;;;16.30;4.10;;;;;;;30.41;54.40;99782.81;10336108;28;20136;-68
2022/08/20 07:32:45;;;;;;;29.40;5.63;;;;;;;30.22;54.95;99761.94;10335347;28;20058;-70
2022/08/20 07:37:50;;;;;;;46.42;6.05;;;;;;;30.61;56.00;99778.75;10335706;28;20410;-70
2022/08/20 07:42:57;;;;;;;18.08;5.32;;;;;;;30.27;53.88;99725.34;10334597;28;20133;-71
2022/08/20 07:48:10;;;;;;;18.52;4.55;;;;;;;30.93;51.76;99786.66;10334737;28;20045;-70
2022/08/20 07:53:11;;;;;;;27.65;4.55;;;;;;;31.20;52.05;99793.00;10334990;28;20034;-71
2022/08/20 07:58:16;;;;;;;22.13;4.90;;;;;;;31.46;50.79;99786.78;10334545;28;20042;-70
2022/08/20 08:03:17;;;;;;;18.27;4.22;;;;;;;31.40;50.11;99752.41;10334308;28;20134;-70
2022/08/20 08:08:22;;;;;;;16.88;4.13;;;;;;;31.75;50.29;99780.69;10335422;28;20038;-70
2022/08/20 08:13:26;;;;;;;26.60;5.07;;;;;;;31.89;49.11;99775.00;10333416;28;20038;-69
2022/08/20 11:38:47;;;;;;;63.75;10.10;;;;;;;34.75;39.79;99628.97;10452775;27;1519787;-71
2022/08/20 11:43:48;;;;;;;76.53;10.52;;;;;;;35.02;39.65;99668.03;10492716;28;20485;-69
2022/08/20 11:48:49;;;;;;;54.38;10.45;;;;;;;34.70;40.29;99660.38;10472263;28;20048;-72
2022/08/20 11:53:50;;;;;;;72.82;11.55;;;;;;;34.47;40.03;99618.66;10471965;28;20040;-70
2022/08/20 11:58:51;;;;;;;80.00;10.80;;;;;;;34.83;39.96;99674.97;10473452;28;20407;-69
2022/08/20 12:03:52;;;;;;;237.98;22.95;;;;;;;34.64;39.28;99653.50;10465193;28;20087;-70
2022/08/20 12:08:52;;;;;;;79.10;11.73;;;;;;;34.35;39.53;99651.75;10466163;28;20043;-71
2022/08/20 12:13:53;;;;;;;75.38;11.77;;;;;;;34.08;39.76;99658.72;10447191;28;20040;-69
2022/08/20 12:18:54;;;;;;;93.53;12.60;;;;;;;33.44;40.27;99593.88;10467840;28;20033;-71
2022/08/20 12:23:55;;;;;;;83.97;12.60;;;;;;;33.53;40.92;99633.19;10465325;28;20124;-71
2022/08/20 12:28:55;;;;;;;115.25;13.40;;;;;;;33.19;41.65;99620.53;10471286;28;20423;-72
2022/08/20 12:33:56;;;;;;;125.60;16.25;;;;;;;33.33;41.75;99675.31;10489394;28;20386;-68
2022/08/20 12:38:57;;;;;;;107.00;15.48;;;;;;;33.27;42.43;99698.66;10496385;28;20051;-71
2022/08/20 12:43:58;;;;;;;140.95;19.30;;;;;;;33.03;42.56;99666.31;10491902;28;20090;-69
2022/08/20 12:48:59;;;;;;;116.97;17.10;;;;;;;33.27;42.38;99687.66;10464235;28;20049;-69
2022/08/20 12:53:59;;;;;;;114.95;17.05;;;;;;;33.28;41.87;99672.75;10459041;28;20036;-68
2022/08/20 12:59:00;;;;;;;127.50;18.45;;;;;;;32.92;42.09;99622.66;10458224;28;20124;-69
2022/08/20 13:04:01;;;;;;;103.55;16.60;;;;;;;32.91;41.57;99636.75;10446493;28;20067;-69
2022/08/20 13:09:02;;;;;;;137.15;18.77;;;;;;;32.80;41.37;99635.53;10454111;28;20381;-69
2022/08/20 13:14:03;;;;;;;127.32;18.50;;;;;;;32.91;41.34;99669.75;10459237;28;20041;-68
2022/08/20 13:19:04;;;;;;;141.10;18.25;;;;;;;32.91;40.54;99691.78;10459119;28;20037;-69
2022/08/20 13:24:05;;;;;;;127.25;17.40;;;;;;;32.94;39.74;99680.09;10441190;28;20082;-67
2022/08/20 13:29:06;;;;;;;126.35;17.23;;;;;;;32.93;39.82;99692.22;10446007;28;20041;-69
2022/08/20 13:34:07;;;;;;;126.65;17.88;;;;;;;32.85;39.45;99688.41;10453651;28;20087;-68
2022/08/20 13:39:08;;;;;;;150.40;18.63;;;;;;;32.74;38.52;99698.97;10457298;28;20045;-68
2022/08/20 13:44:09;;;;;;;140.80;19.00;;;;;;;32.21;38.32;99636.28;10459086;28;20438;-68
2022/08/20 13:49:10;;;;;;;135.52;17.02;;;;;;;32.49;37.83;99686.19;10457571;28;20052;-67
2022/08/20 13:54:11;;;;;;;105.75;15.60;;;;;;;32.16;38.15;99651.03;10454499;28;20033;-69
2022/08/20 13:59:11;;;;;;;146.93;17.23;;;;;;;31.99;37.39;99635.41;10437450;28;20067;-73
2022/08/20 14:04:12;;;;;;;128.73;18.88;;;;;;;32.27;37.23;99693.50;10416057;28;20053;-71
2022/08/20 14:09:13;;;;;;;108.93;16.30;;;;;;;32.11;37.30;99694.38;10441501;28;20136;-70
2022/08/20 14:14:14;;;;;;;126.85;14.77;;;;;;;32.16;37.74;99711.50;10457008;28;20037;-68
2022/08/20 14:19:14;;;;;;;124.68;14.25;;;;;;;31.92;37.36;99689.22;10457132;28;20095;-68
2022/08/20 14:24:16;;;;;;;100.03;14.32;;;;;;;31.82;36.49;99693.91;10452924;28;20049;-68
2022/08/20 14:29:19;;;;;;;98.53;13.85;;;;;;;31.83;36.00;99723.00;10456095;28;20080;-68
2022/08/20 14:34:20;;;;;;;97.18;14.00;;;;;;;31.37;35.58;99675.06;10455290;28;20123;-69
2022/08/20 14:39:24;;;;;;;110.25;13.43;;;;;;;31.38;34.84;99706.88;10456732;28;20144;-68
2022/08/20 14:44:24;;;;;;;118.57;15.20;;;;;;;31.20;34.85;99691.47;10455312;28;20071;-72
2022/08/20 14:49:25;;;;;;;112.93;14.65;;;;;;;31.28;34.50;99722.81;10455579;28;20085;-68
2022/08/20 14:54:26;;;;;;;109.57;12.80;;;;;;;30.94;34.54;99685.97;10454739;28;20590;-70
2022/08/20 14:59:27;;;;;;;119.63;14.07;;;;;;;30.40;33.70;99608.59;10454759;28;20071;-68
2022/08/20 15:04:28;;;;;;;134.63;14.48;;;;;;;30.80;33.42;99694.31;10454567;28;20044;-66
2022/08/20 15:09:30;;;;;;;99.45;13.85;;;;;;;30.79;33.08;99725.63;10454916;28;20496;-69
2022/08/20 15:14:30;;;;;;;178.57;14.23;;;;;;;30.43;33.04;99679.19;10454601;28;20125;-65
2022/08/20 15:19:31;;;;;;;111.93;12.57;;;;;;;30.15;32.90;99656.63;10454162;28;20128;-65
2022/08/20 15:24:32;;;;;;;133.95;12.85;;;;;;;30.47;32.82;99730.31;10454087;28;20511;-66
2022/08/20 15:29:33;;;;;;;103.35;12.90;;;;;;;30.06;33.09;99691.38;10454058;28;20068;-67
2022/08/20 15:34:35;;;;;;;103.88;11.27;;;;;;;29.90;33.77;99697.25;10453075;28;20567;-67
2022/08/20 15:39:36;;;;;;;92.00;11.63;;;;;;;30.06;34.81;99757.91;10453560;28;20503;-67
2022/08/20 15:44:38;;;;;;;91.72;12.90;;;;;;;29.42;36.64;99719.72;10452306;28;20075;-66
2022/08/20 15:49:39;;;;;;;114.97;13.18;;;;;;;29.60;37.65;99764.47;10453985;28;20068;-67
2022/08/20 15:54:40;;;;;;;94.28;13.15;;;;;;;29.41;38.16;99777.50;10453942;28;20033;-65
2022/08/20 16:00:08;;;;;;;95.63;10.93;;;;;;;29.25;38.59;99772.34;10454502;28;20037;-67
2022/08/20 16:05:44;;;;;;;81.05;10.38;;;;;;;29.04;38.96;99782.91;10436749;28;20041;-66
2022/08/20 16:11:09;;;;;;;109.88;12.80;;;;;;;28.87;39.67;99791.69;10452939;28;20179;-67
2022/08/20 16:16:32;;;;;;;101.22;10.73;;;;;;;28.77;39.91;99789.16;10453097;28;20044;-67
2022/08/20 16:21:36;;;;;;;77.45;9.98;;;;;;;28.27;40.30;99753.44;10455160;28;20503;-64
2022/08/20 16:26:52;;;;;;;66.72;9.88;;;;;;;28.41;40.71;99806.19;10455538;28;20568;-67
2022/08/20 16:32:02;;;;;;;91.82;11.98;;;;;;;28.18;41.45;99790.72;10438789;28;20049;-66
2022/08/20 16:37:25;;;;;;;71.32;9.95;;;;;;;28.17;41.67;99809.03;10437725;28;20102;-65
2022/08/20 16:42:35;;;;;;;76.93;10.95;;;;;;;27.61;42.02;99765.38;10457719;28;20076;-69
2022/08/20 16:47:38;;;;;;;99.95;12.50;;;;;;;27.07;42.00;99712.91;10464154;28;20056;-67
2022/08/20 16:52:42;;;;;;;137.63;18.10;;;;;;;27.64;42.36;99824.81;10460178;28;20039;-68
2022/08/20 16:57:44;;;;;;;117.03;15.38;;;;;;;27.41;42.49;99818.31;10464442;28;20120;-66
2022/08/20 17:02:56;;;;;;;129.00;15.88;;;;;;;27.33;42.40;99813.50;10479243;28;20044;-66
2022/08/20 17:08:03;;;;;;;115.80;15.75;;;;;;;26.53;42.55;99708.66;10477222;28;20388;-67
2022/08/20 17:13:13;;;;;;;96.95;13.27;;;;;;;27.15;42.82;99842.34;10473309;28;20074;-67
2022/08/20 17:18:25;;;;;;;120.85;14.60;;;;;;;27.04;42.72;99836.16;10468933;28;20132;-67
2022/08/20 17:23:26;;;;;;;106.25;14.75;;;;;;;26.90;42.47;99837.97;10477543;28;20551;-65
2022/08/20 17:28:27;;;;;;;119.05;16.02;;;;;;;26.82;42.74;99845.66;10476541;28;20452;-66
2022/08/20 17:33:33;;;;;;;112.45;13.60;;;;;;;26.69;42.59;99835.44;10479503;28;20131;-66
2022/08/20 17:38:39;;;;;;;105.22;12.43;;;;;;;26.58;42.80;99831.19;10476069;28;20057;-65
2022/08/20 17:43:41;;;;;;;91.85;11.13;;;;;;;26.48;42.71;99826.63;10476947;28;20047;-66
2022/08/20 17:48:45;;;;;;;108.28;14.02;;;;;;;25.96;43.12;99785.38;10472577;28;20124;-67
2022/08/20 17:53:52;;;;;;;96.07;12.50;;;;;;;26.11;43.86;99838.88;10472433;28;20068;-66
2022/08/20 17:59:01;;;;;;;106.13;11.95;;;;;;;26.11;44.07;99862.56;10456657;28;20478;-67
2022/08/20 18:04:02;;;;;;;81.43;9.40;;;;;;;25.98;44.79;99861.31;10468942;28;20049;-66
2022/08/20 18:09:29;;;;;;;58.88;8.43;;;;;;;25.88;45.68;99858.66;10456755;28;20041;-65
2022/08/20 18:14:48;;;;;;;61.17;7.95;;;;;;;25.74;46.59;99864.66;10474749;28;20052;-66
2022/08/20 18:19:55;;;;;;;69.85;9.27;;;;;;;25.19;46.66;99787.72;10472884;28;20040;-66
2022/08/20 18:25:22;;;;;;;72.43;8.73;;;;;;;25.56;47.58;99867.22;10454719;28;20409;-66
2022/08/20 18:30:25;;;;;;;86.03;10.25;;;;;;;25.37;47.40;99856.97;10475879;28;20177;-66
2022/08/20 18:35:40;;;;;;;77.05;9.52;;;;;;;25.40;48.00;99867.28;10472691;28;20061;-67
2022/08/20 18:40:40;;;;;;;85.00;9.93;;;;;;;25.24;47.99;99852.91;10473988;28;20166;-66
2022/08/20 18:45:42;;;;;;;90.95;9.90;;;;;;;25.26;47.87;99888.00;10468027;28;20114;-66
2022/08/20 18:50:49;;;;;;;96.65;10.73;;;;;;;24.99;48.64;99861.94;10473050;28;20032;-66
2022/08/20 18:56:04;;;;;;;67.07;9.23;;;;;;;25.20;49.08;99891.81;10471337;28;20044;-64
2022/08/20 19:01:11;;;;;;;66.65;9.38;;;;;;;25.09;49.22;99885.53;10473110;28;20037;-66
2022/08/20 19:06:20;;;;;;;71.82;7.93;;;;;;;24.69;49.30;99838.34;10458602;28;20037;-68
2022/08/20 19:11:27;;;;;;;52.35;7.95;;;;;;;25.04;49.78;99891.81;10466504;28;20051;-67
2022/08/20 19:16:36;;;;;;;70.63;8.57;;;;;;;24.98;49.90;99889.41;10470233;28;20041;-66
2022/08/20 19:21:41;;;;;;;54.40;7.47;;;;;;;24.85;49.67;99879.06;10472572;28;20032;-66
2022/08/20 19:26:47;;;;;;;62.47;7.07;;;;;;;24.83;49.89;99873.94;10460233;28;20452;-66
2022/08/20 19:31:48;;;;;;;54.45;7.85;;;;;;;24.38;49.78;99815.81;10448506;28;20052;-66
2022/08/20 19:36:57;;;;;;;54.03;7.35;;;;;;;24.40;50.20;99819.06;10424557;28;20072;-68
2022/08/20 19:42:02;;;;;;;67.00;7.85;;;;;;;24.42;50.26;99822.34;10449192;28;20103;-66
2022/08/20 19:47:04;;;;;;;74.78;8.50;;;;;;;24.71;50.11;99876.09;10422053;28;20103;-66
2022/08/20 19:52:35;;;;;;;75.90;8.35;;;;;;;24.69;50.82;99864.69;10435726;28;20444;-66
2022/08/20 19:57:36;;;;;;;59.20;7.78;;;;;;;24.63;50.67;99863.06;10456831;28;20043;-66
2022/08/20 20:02:37;;;;;;;68.53;8.50;;;;;;;24.20;50.57;99791.91;10461646;28;20033;-66
2022/08/20 20:07:48;;;;;;;52.67;8.27;;;;;;;24.59;50.98;99860.09;10461582;28;20908;-66
2022/08/20 20:12:49;;;;;;;62.35;7.82;;;;;;;24.44;51.04;99841.06;10462292;28;20033;-67
2022/08/20 20:17:52;;;;;;;61.25;8.63;;;;;;;24.40;51.31;99850.81;10461373;28;20499;-65
2022/08/20 20:23:14;;;;;;;64.22;7.38;;;;;;;24.44;51.69;99858.19;10444055;28;20033;-66
2022/08/20 20:28:22;;;;;;;63.97;6.72;;;;;;;24.38;52.03;99865.50;10456584;28;20102;-65
2022/08/20 20:33:29;;;;;;;53.22;6.82;;;;;;;24.33;51.84;99857.34;10461613;28;20032;-65
2022/08/20 20:38:30;;;;;;;62.58;7.00;;;;;;;23.87;51.83;99799.47;10443381;28;20065;-66
2022/08/20 20:43:35;;;;;;;49.08;6.30;;;;;;;24.29;51.97;99853.56;10460846;28;20041;-67
2022/08/20 20:48:45;;;;;;;57.38;7.00;;;;;;;23.51;52.12;99737.03;10461025;28;20071;-65
2022/08/20 20:53:48;;;;;;;65.00;7.20;;;;;;;24.24;51.89;99858.16;10460481;28;20041;-68
2022/08/20 20:58:49;;;;;;;54.73;6.57;;;;;;;24.22;52.09;99852.97;10434638;28;20049;-66
2022/08/20 21:03:50;;;;;;;70.30;7.93;;;;;;;24.20;51.86;99852.47;10445476;28;20047;-66
2022/08/20 21:08:51;;;;;;;65.20;6.75;;;;;;;24.21;52.17;99850.56;10427305;28;20496;-65
2022/08/20 21:13:52;;;;;;;48.80;6.90;;;;;;;24.13;52.07;99828.28;10418919;28;20052;-66
2022/08/20 21:18:52;;;;;;;56.60;6.28;;;;;;;24.11;52.22;99829.63;10400873;28;20037;-68
2022/08/20 21:23:53;;;;;;;60.38;6.95;;;;;;;23.72;51.98;99770.44;10417999;28;20042;-66
2022/08/20 21:28:54;;;;;;;56.20;7.38;;;;;;;23.72;52.46;99765.00;10417912;28;20079;-67
2022/08/20 21:33:55;;;;;;;61.25;7.38;;;;;;;23.99;52.40;99808.22;10417506;28;20132;-66
2022/08/20 21:38:56;;;;;;;65.40;7.15;;;;;;;23.98;52.76;99817.41;10417634;28;20072;-67
2022/08/20 21:44:04;;;;;;;51.22;6.68;;;;;;;23.97;52.98;99814.97;10418291;28;20429;-67
2022/08/20 21:49:05;;;;;;;48.63;6.22;;;;;;;23.89;52.78;99809.00;10416397;28;20048;-67
2022/08/20 21:54:06;;;;;;;33.10;5.35;;;;;;;23.76;53.09;99787.00;10416699;28;20045;-67
2022/08/20 21:59:08;;;;;;;40.85;6.55;;;;;;;23.39;52.92;99715.63;10416582;28;20050;-67
2022/08/20 22:04:09;;;;;;;42.58;5.32;;;;;;;23.92;53.17;99794.88;10416209;28;20091;-68
2022/08/20 22:09:10;;;;;;;53.65;6.32;;;;;;;23.81;53.32;99768.00;10416870;28;20046;-66
2022/08/20 22:14:12;;;;;;;46.75;6.20;;;;;;;23.77;53.38;99780.50;10415305;28;20069;-66
2022/08/20 22:19:13;;;;;;;34.92;4.57;;;;;;;23.93;53.73;99809.25;10414232;28;20182;-67
2022/08/20 22:24:14;;;;;;;39.30;5.03;;;;;;;23.94;54.00;99808.19;10420590;28;20042;-67
2022/08/20 22:29:15;;;;;;;38.95;5.43;;;;;;;23.88;53.95;99801.94;10446194;28;20041;-67
2022/08/20 22:34:18;;;;;;;37.58;5.60;;;;;;;23.95;54.15;99812.53;10456712;28;20049;-67
2022/08/20 22:39:19;;;;;;;32.58;4.05;;;;;;;23.89;54.36;99797.31;10456706;28;20079;-67
2022/08/20 22:44:20;;;;;;;45.60;5.32;;;;;;;23.94;54.34;99805.47;10455411;28;20107;-66
2022/08/20 22:49:25;;;;;;;30.25;4.75;;;;;;;23.96;54.76;99802.47;10454381;28;20061;-67
2022/08/20 22:54:26;;;;;;;34.42;5.20;;;;;;;23.47;54.59;99725.91;10455496;28;20094;-67
2022/08/20 22:59:27;;;;;;;28.00;4.53;;;;;;;23.91;54.77;99789.75;10454838;28;20047;-66
2022/08/20 23:04:34;;;;;;;23.52;4.25;;;;;;;23.75;55.53;99769.09;10454854;28;20132;-67
2022/08/20 23:09:34;;;;;;;42.38;4.55;;;;;;;23.77;55.27;99773.16;10454692;28;20043;-66
2022/08/20 23:14:36;;;;;;;21.40;4.00;;;;;;;23.93;55.64;99798.41;10454868;28;20128;-66
2022/08/20 23:19:38;;;;;;;26.67;3.63;;;;;;;23.92;55.84;99792.16;10454839;28;20183;-67
2022/08/20 23:24:39;;;;;;;29.17;4.28;;;;;;;23.90;56.03;99793.53;10454101;28;20128;-66
2022/08/20 23:29:40;;;;;;;30.67;3.63;;;;;;;23.79;56.07;99768.31;10453977;28;20124;-67
2022/08/20 23:34:41;;;;;;;32.15;4.00;;;;;;;23.98;56.48;99795.72;10454618;28;20048;-68
2022/08/20 23:39:44;;;;;;;19.25;3.53;;;;;;;23.98;56.70;99798.41;10454342;28;20076;-67
2022/08/20 23:44:45;;;;;;;20.42;4.18;;;;;;;23.98;57.07;99795.72;10453782;28;20051;-67
2022/08/20 23:49:46;;;;;;;42.38;4.22;;;;;;;23.85;57.34;99780.78;10454283;28;20378;-67
2022/08/20 23:54:47;;;;;;;30.17;4.30;;;;;;;23.92;57.53;99792.16;10453927;28;20175;-65
2022/08/20 23:59:49;;;;;;;19.02;3.22;;;;;;;23.96;57.66;99806.03;10453905;28;20454;-67
